• Join FlightAware (Why Join?)
  • Login
  • US Flag 
Rudolph Flight #1: Arrived! 
10:04PM EST


 

Airport Tracker/Info


-or-


 

Live Flight TrackerFlight Track Log ✈ EJA728 ✈ 29-Apr-2013 ✈ KIAD - KBOS

Flight Track Log - Related Links

Times and Time Zones

All times are in EDT time to prevent confusion due to time zone crossing. See the EJA728 flight status page for this flight to view local times or setup timezone preferences in your user account.

Time Position Orientation Groundspeed Altitude Reporting Facility
EDT Latitude Longitude Course Direction KTS MPH feet Rate Location/Type
06:59AM 38.9667 -77.5333 90° East 220 253 2,400  Level Potomac TRACON
07:00AM 38.9833 -77.6000 288° West 183 211 3,100 300 Climbing Potomac TRACON
07:01AM 39.0000 -77.6667 288° West 194 223 3,100  Level Potomac TRACON
07:02AM 39.0333 -77.7000 322° Northwest 191 220 3,100 720 Level Potomac TRACON
07:03AM 39.1000 -77.7000 360° North 209 241 4,600 960 Climbing Potomac TRACON
07:04AM 39.3167 -76.9487 90° East  Level FlightAware Approximate
07:04AM 39.1500 -77.6833 14° North 215 247 5,100  Level Potomac TRACON
07:05AM 39.2000 -77.6667 14° North 204 235 5,100  Level Potomac TRACON
07:06AM 39.2667 -77.6667 360° North 200 230 5,100  Level Potomac TRACON
07:07AM 39.3000 -77.6167 49° Northeast 205 236 5,100  Level Potomac TRACON
07:08AM 39.3333 -77.5500 57° Northeast 210 242 5,100  Level Potomac TRACON
07:09AM 39.3333 -77.4833 90° East 200 230 5,100  Level Potomac TRACON
07:10AM 39.3333 -77.4333 90° East 186 214 5,100  Level Potomac TRACON
07:11AM 39.3000 -77.4500 201° Southwest 145 167 5,100  Level Potomac TRACON
07:12AM 39.2500 -77.4500 180° South 166 191 5,100 -60 Level Potomac TRACON
07:13AM 39.2167 -77.4500 180° South 156 180 5,000 -480 Descending Potomac TRACON
07:14AM 39.1667 -77.4500 180° South 157 181 4,200 -900 Descending Potomac TRACON
07:15AM 39.1167 -77.4500 180° South 169 194 3,300 -960 Descending Potomac TRACON
07:16AM 39.0667 -77.4667 195° South 165 190 2,300 -960 Descending Potomac TRACON
07:17AM 39.0333 -77.4667 180° South 170 196 1,400 -900 Descending Potomac TRACON
07:18AM 38.9833 -77.4667 180° South 141 162 600 -540 Descending Potomac TRACON
07:19AM 38.9500 -77.4667 180° South 140 161 400 -240 Descending Potomac TRACON
07:21AM 39.0816 -77.2408 90° East  Level Estimated
07:28AM 39.5502 -76.4230 90° East  Level Estimated
07:29AM 39.6167 -76.3053 90° East  Level Estimated
07:30AM 39.6830 -76.1873 78° East  Level Estimated
07:31AM 39.7493 -76.0692 38° Northeast  Level Estimated
07:32AM 39.8154 -75.9508 43° Northeast  Level Estimated
07:33AM 39.7772 -75.8130 110° East  Level FlightAware Approximate
07:34AM 39.7389 -75.6755 110° East  Level FlightAware Approximate
07:35AM 39.7005 -75.5381 110° East  Level FlightAware Approximate
07:36AM 39.7718 -75.4250 48° Northeast  Level Estimated
07:37AM 39.8090 -75.2868 71° East  Level FlightAware Approximate
07:38AM 39.8461 -75.1486 71° East  Level FlightAware Approximate
07:39AM 39.8830 -75.0101 71° East  Level FlightAware Approximate
07:40AM 39.9564 -74.8990 45° Northeast  Level Estimated
07:41AM 40.0147 -74.7735 59° Northeast  Level FlightAware Approximate
07:42AM 40.0883 -74.6623 47° Northeast  Level Estimated
07:43AM 40.1595 -74.5484 51° Northeast  Level FlightAware Approximate
07:44AM 40.2328 -74.4368 38° Northeast  Level Estimated
07:45AM 40.3221 -74.3471 37° Northeast  Level FlightAware Approximate
07:46AM 40.4113 -74.2572 38° Northeast  Level FlightAware Approximate
07:47AM 40.5004 -74.1670 38° Northeast  Level FlightAware Approximate
07:48AM 40.5714 -74.0523 76° East  Level Estimated
07:49AM 40.5945 -73.9073 78° East  Level FlightAware Approximate
07:50AM 40.6669 -73.7939 49° Northeast  Level Estimated
07:51AM 40.7392 -73.6802 52° Northeast  Level Estimated
07:52AM 40.8113 -73.5662 47° Northeast  Level Estimated
07:53AM 40.8551 -73.4231 57° Northeast  Level FlightAware Approximate
07:54AM 40.9329 -73.3257 49° Northeast  Level FlightAware Approximate
07:55AM 41.0064 -73.2130 50° Northeast  Level FlightAware Approximate
07:56AM 41.0779 -73.0978 51° Northeast  Level FlightAware Approximate
07:57AM 41.1492 -72.9824 51° Northeast  Level FlightAware Approximate
07:58AM 41.2217 -72.8697 64° Northeast  Level FlightAware Approximate
07:59AM 41.2708 -72.7351 64° Northeast  Level FlightAware Approximate
08:00AM 41.3197 -72.6003 64° Northeast  Level FlightAware Approximate
08:01AM 41.3756 -72.4733 66° East  Level FlightAware Approximate
08:02AM 41.4214 -72.3363 66° East  Level FlightAware Approximate
08:03AM 41.4670 -72.1992 63° Northeast  Level FlightAware Approximate
08:04AM 41.5184 -72.0656 63° Northeast  Level FlightAware Approximate
08:05AM 41.5676 -71.9306 66° East  Level FlightAware Approximate
08:06AM 41.6118 -71.7923 69° East  Level FlightAware Approximate
08:07AM 41.6519 -71.6517 69° East  Level FlightAware Approximate
08:08AM 41.6855 -71.5102 66° East  Level FlightAware Approximate
08:09AM 41.7367 -71.3766 56° Northeast  Level FlightAware Approximate
08:10AM 41.7882 -71.2428 63° Northeast  Level FlightAware Approximate
08:11AM 41.8493 -71.1177 48° Northeast  Level FlightAware Approximate
08:12AM 41.9596 -71.0968 14° North  Level FlightAware Approximate
08:13AM 42.0688 -71.0604 14° North  Level FlightAware Approximate
08:14AM 42.1793 -71.0343 10° North  Level FlightAware Approximate
08:15AM 42.2902 -71.0108 10° North  Level FlightAware Approximate
08:16AM 42.3500 -71.0000 North  Level FlightAware Approximate
08:17AM 42.3630 -71.0064 North  Level Estimated
08:18AM 42.3630 -71.0064 North  Level Estimated
08:19AM 42.3630 -71.0064 North  Level Estimated
08:20AM 42.3630 -71.0064 North  Level Estimated
08:21AM 42.3630 -71.0064 North  Level Estimated
08:22AM 42.3630 -71.0064 North  Level Estimated
08:23AM 42.3630 -71.0064 North  Level Estimated
08:24AM 42.3630 -71.0064 North  Level Estimated
08:25AM 42.3630 -71.0064 North  Level Estimated
08:26AM 42.3630 -71.0064 North  Level Estimated
08:27AM 42.3630 -71.0064 North  Level Estimated
08:28AM 42.3630 -71.0064 North  Level Estimated
08:29AM 42.3630 -71.0064 North  Level Estimated
08:30AM 42.3630 -71.0064 North  Level Estimated
08:31AM 42.3630 -71.0064 North  Level Estimated